In Rescue
 
Open Full Screen Window  High Contrast Mode
Wind Gusting 00 knots
06
September 19, 2019 5:35 PM EDT
Weather Information
Wind Direction
  190 °
Wind Speed
  06 kt (7 mph)
Wind Gust
  00 kt (0 mph)
Altimeter
30.02 in
Visibility
10 SM
Temperature
24° C
75° F
Dewpoint
19° C
66° F
Humidity
74%
1hr Rain Fall
00.00 in.
24hr Rain Fall
00.01 in.
Sky Condition
Clear
VFR

METAR KSAW 192135Z AUTO 19006KT 10SM CLR 24/19 A3002 RMK AO2 T02380192

FAA Disclaimer: The data displayed is for advisory purposes only and is not to be used for flight planning or operations.